Time;durP1;ratioP1;P1;durP2;ratioP2;P2;SDS_P1;SDS_P2;PMS_P1;PMS_P2;Temp;Humidity;BMP_temperature;BMP_pressure;BME280_temperature;BME280_humidity;BME280_pressure;Samples;Min_cycle;Max_cycle;Signal;HPM_P1;HPM_P2
2020/12/12 00:02:15;;;;;;;17.05;10.77;;;;;;;;;;5037546;28;20036;-80
2020/12/12 00:05:00;;;;;;;15.82;10.00;;;;;;;;;;5050202;28;20039;-80
2020/12/12 00:07:45;;;;;;;16.42;10.20;;;;;;;;;;5037154;28;20027;-80
2020/12/12 00:10:30;;;;;;;15.32;9.80;;;;;;;;;;5049019;28;20020;-80
2020/12/12 00:13:16;;;;;;;14.85;9.63;;;;;;;;;;5041979;28;20040;-80
2020/12/12 00:16:01;;;;;;;15.73;10.23;;;;;;;;;;5047313;28;20252;-80
2020/12/12 00:18:46;;;;;;;12.52;8.73;;;;;;;;;;5044860;28;20024;-79
2020/12/12 00:21:31;;;;;;;15.48;9.50;;;;;;;;;;5037982;28;20040;-80
2020/12/12 00:24:17;;;;;;;15.20;9.85;;;;;;;;;;5047675;28;20562;-79
2020/12/12 00:27:02;;;;;;;15.02;9.02;;;;;;;;;;5055512;28;20079;-79
2020/12/12 00:29:48;;;;;;;15.25;10.27;;;;;;;;;;5044113;28;20060;-80
2020/12/12 00:32:33;;;;;;;16.83;10.30;;;;;;;;;;5038665;28;20029;-80
2020/12/12 00:35:18;;;;;;;13.48;8.85;;;;;;;;;;5051416;28;20052;-79
2020/12/12 00:38:03;;;;;;;15.07;9.93;;;;;;;;;;5049663;28;20031;-79
2020/12/12 00:40:56;;;;;;;16.05;10.38;;;;;;;;;;5049958;28;20027;-79
2020/12/12 00:43:41;;;;;;;14.63;8.77;;;;;;;;;;5045799;28;20604;-80
2020/12/12 00:46:28;;;;;;;16.67;9.40;;;;;;;;;;5053598;28;20028;-79
2020/12/12 00:49:13;;;;;;;13.65;9.30;;;;;;;;;;5045573;28;20036;-80
2020/12/12 00:51:58;;;;;;;12.98;7.85;;;;;;;;;;5052806;28;20032;-78
2020/12/12 00:54:43;;;;;;;11.02;7.43;;;;;;;;;;5048022;28;20391;-80
2020/12/12 00:57:29;;;;;;;16.10;10.35;;;;;;;;;;5047882;28;20471;-80
2020/12/12 01:00:14;;;;;;;12.15;8.10;;;;;;;;;;5047332;28;20613;-79
2020/12/12 01:03:03;;;;;;;15.65;9.68;;;;;;;;;;5044293;28;20174;-78
2020/12/12 01:05:48;;;;;;;14.90;8.87;;;;;;;;;;5023066;28;20064;-80
2020/12/12 01:08:33;;;;;;;12.48;8.52;;;;;;;;;;5031893;28;20033;-81
2020/12/12 01:11:19;;;;;;;12.93;8.57;;;;;;;;;;5019061;28;20483;-78
2020/12/12 01:14:04;;;;;;;16.65;9.60;;;;;;;;;;5023822;28;20047;-78
2020/12/12 01:16:49;;;;;;;14.15;9.30;;;;;;;;;;5027248;28;20025;-78
2020/12/12 01:19:35;;;;;;;13.93;9.25;;;;;;;;;;5032754;28;20033;-80
2020/12/12 01:22:20;;;;;;;13.88;9.55;;;;;;;;;;5035606;28;20032;-80
2020/12/12 01:25:05;;;;;;;12.10;8.30;;;;;;;;;;5032044;28;20235;-80
2020/12/12 01:27:50;;;;;;;13.07;8.07;;;;;;;;;;5031636;28;20044;-80
2020/12/12 01:30:36;;;;;;;13.18;9.13;;;;;;;;;;5028740;28;20048;-80
2020/12/12 01:33:21;;;;;;;13.63;8.23;;;;;;;;;;5031337;28;20024;-80
2020/12/12 01:36:07;;;;;;;12.30;7.35;;;;;;;;;;5031488;28;20104;-79
2020/12/12 01:38:52;;;;;;;15.60;9.52;;;;;;;;;;5040443;28;20246;-80
2020/12/12 01:41:37;;;;;;;14.77;8.48;;;;;;;;;;5031416;28;20049;-80
2020/12/12 01:44:22;;;;;;;13.82;8.55;;;;;;;;;;5030688;28;20040;-79
2020/12/12 01:47:08;;;;;;;12.73;9.57;;;;;;;;;;5029515;28;20017;-80
2020/12/12 01:49:53;;;;;;;11.63;7.85;;;;;;;;;;5022847;28;20474;-80
2020/12/12 01:52:39;;;;;;;12.82;8.45;;;;;;;;;;5033105;28;20489;-80
2020/12/12 01:55:24;;;;;;;13.30;8.27;;;;;;;;;;5030041;28;20040;-79
2020/12/12 01:58:09;;;;;;;12.82;7.38;;;;;;;;;;5031221;28;20034;-80
2020/12/12 02:00:55;;;;;;;13.75;7.95;;;;;;;;;;5029480;28;20021;-79
2020/12/12 02:03:41;;;;;;;12.98;8.50;;;;;;;;;;5031828;28;20044;-80
2020/12/12 02:06:26;;;;;;;13.25;7.35;;;;;;;;;;5024185;28;20031;-79
2020/12/12 02:09:14;;;;;;;14.15;7.65;;;;;;;;;;5027848;28;20044;-79
2020/12/12 02:12:00;;;;;;;17.73;10.70;;;;;;;;;;5039095;28;20377;-79
2020/12/12 02:14:45;;;;;;;34.20;16.83;;;;;;;;;;5011853;28;20060;-79
2020/12/12 02:17:30;;;;;;;34.95;15.10;;;;;;;;;;5022807;28;20048;-79
2020/12/12 02:20:16;;;;;;;26.38;15.57;;;;;;;;;;5028905;28;20079;-79
2020/12/12 02:23:01;;;;;;;26.50;14.77;;;;;;;;;;5033355;28;20480;-79
2020/12/12 02:25:46;;;;;;;14.75;8.75;;;;;;;;;;5032956;28;20111;-79
2020/12/12 02:28:40;;;;;;;14.25;9.65;;;;;;;;;;5029128;28;20075;-79
2020/12/12 02:31:26;;;;;;;14.02;9.02;;;;;;;;;;5024730;28;20025;-80
2020/12/12 02:34:11;;;;;;;10.43;6.78;;;;;;;;;;5024504;28;20045;-79
2020/12/12 02:36:56;;;;;;;13.50;7.55;;;;;;;;;;5021008;28;20029;-79
2020/12/12 02:39:41;;;;;;;14.90;9.23;;;;;;;;;;5032352;28;20017;-79
2020/12/12 02:42:26;;;;;;;13.88;8.00;;;;;;;;;;5026919;28;20020;-79
2020/12/12 02:45:12;;;;;;;13.02;7.90;;;;;;;;;;5022890;28;20475;-79
2020/12/12 02:47:57;;;;;;;12.80;7.50;;;;;;;;;;5028203;28;20268;-79
2020/12/12 02:50:43;;;;;;;12.98;7.43;;;;;;;;;;5025661;28;20376;-79
2020/12/12 02:53:28;;;;;;;13.77;8.65;;;;;;;;;;5027707;28;20040;-79
2020/12/12 02:56:15;;;;;;;13.05;9.25;;;;;;;;;;5020361;28;20387;-78
2020/12/12 02:59:00;;;;;;;12.05;8.15;;;;;;;;;;5029150;28;20052;-79
2020/12/12 03:01:45;;;;;;;14.00;8.13;;;;;;;;;;5026609;28;20041;-79
2020/12/12 03:04:30;;;;;;;12.45;8.38;;;;;;;;;;5041899;28;20052;-78
2020/12/12 03:07:16;;;;;;;14.77;8.57;;;;;;;;;;5049862;28;20032;-78
2020/12/12 03:10:04;;;;;;;10.75;6.95;;;;;;;;;;5049157;28;20031;-78
2020/12/12 03:12:50;;;;;;;13.35;8.50;;;;;;;;;;5049080;28;20020;-78
2020/12/12 03:15:35;;;;;;;13.85;9.25;;;;;;;;;;5044997;28;20035;-78
2020/12/12 03:18:20;;;;;;;12.38;8.07;;;;;;;;;;5047725;28;20377;-79
2020/12/12 03:21:06;;;;;;;12.85;8.02;;;;;;;;;;5048511;28;20016;-78
2020/12/12 03:23:51;;;;;;;13.70;7.75;;;;;;;;;;5042845;28;20409;-78
2020/12/12 03:26:36;;;;;;;13.05;8.20;;;;;;;;;;5052156;28;20029;-79
2020/12/12 03:29:21;;;;;;;13.88;9.13;;;;;;;;;;5038398;28;20105;-79
2020/12/12 03:32:07;;;;;;;10.88;7.40;;;;;;;;;;5049179;28;20078;-78
2020/12/12 03:34:52;;;;;;;18.23;8.50;;;;;;;;;;5044376;28;20033;-79
2020/12/12 03:37:38;;;;;;;11.98;8.05;;;;;;;;;;5049852;28;20024;-80
2020/12/12 03:40:23;;;;;;;12.02;7.38;;;;;;;;;;5044654;28;20044;-79
2020/12/12 03:43:09;;;;;;;9.77;6.75;;;;;;;;;;5048781;28;20027;-79
2020/12/12 03:45:54;;;;;;;15.73;9.07;;;;;;;;;;5047032;28;20035;-79
2020/12/12 03:48:41;;;;;;;12.88;6.85;;;;;;;;;;5040191;28;20021;-79
2020/12/12 03:51:26;;;;;;;11.43;7.38;;;;;;;;;;5042309;28;20090;-79
2020/12/12 03:54:11;;;;;;;13.38;7.25;;;;;;;;;;5046594;28;20028;-78
2020/12/12 03:56:57;;;;;;;14.77;7.10;;;;;;;;;;5053461;28;20055;-79
2020/12/12 03:59:42;;;;;;;13.30;8.60;;;;;;;;;;5049022;28;20047;-79
2020/12/12 04:02:27;;;;;;;15.00;7.90;;;;;;;;;;5051226;28;20470;-79
2020/12/12 04:05:12;;;;;;;11.98;7.53;;;;;;;;;;5048041;28;20060;-79
2020/12/12 04:07:57;;;;;;;12.80;7.10;;;;;;;;;;5042484;28;20061;-79
2020/12/12 04:10:43;;;;;;;11.18;6.82;;;;;;;;;;5037784;28;20051;-79
2020/12/12 04:13:28;;;;;;;13.40;9.45;;;;;;;;;;5040142;28;20024;-79
2020/12/12 04:16:14;;;;;;;10.93;7.35;;;;;;;;;;5048998;28;20036;-79
2020/12/12 04:18:59;;;;;;;13.63;8.85;;;;;;;;;;5056335;28;20020;-79
2020/12/12 04:21:44;;;;;;;14.48;7.38;;;;;;;;;;5053447;28;20116;-79
2020/12/12 04:24:29;;;;;;;14.95;9.50;;;;;;;;;;5052915;28;20017;-79
2020/12/12 04:27:14;;;;;;;12.70;8.98;;;;;;;;;;5051718;28;20031;-80
2020/12/12 04:30:00;;;;;;;14.48;8.10;;;;;;;;;;5046871;28;20110;-79
2020/12/12 04:32:45;;;;;;;15.05;9.73;;;;;;;;;;5050184;28;20048;-80
2020/12/12 04:35:30;;;;;;;14.85;10.32;;;;;;;;;;5053139;28;20039;-79
2020/12/12 04:38:15;;;;;;;11.68;7.85;;;;;;;;;;5054562;28;20036;-78
2020/12/12 04:41:01;;;;;;;13.95;8.98;;;;;;;;;;5050513;28;20033;-78
2020/12/12 04:43:46;;;;;;;14.20;8.52;;;;;;;;;;5049836;28;20033;-78
2020/12/12 04:46:31;;;;;;;14.18;8.70;;;;;;;;;;5039497;28;20021;-78
2020/12/12 04:49:17;;;;;;;15.07;7.75;;;;;;;;;;5053312;28;20672;-78
2020/12/12 04:52:05;;;;;;;14.35;8.80;;;;;;;;;;5052163;28;20368;-79
2020/12/12 04:54:51;;;;;;;15.55;10.05;;;;;;;;;;5052264;28;20048;-78
2020/12/12 04:57:37;;;;;;;14.55;8.38;;;;;;;;;;5051609;28;20144;-78
2020/12/12 05:00:23;;;;;;;15.73;9.57;;;;;;;;;;5041813;28;20442;-79
2020/12/12 05:03:10;;;;;;;16.13;9.10;;;;;;;;;;5047879;28;20032;-79
2020/12/12 05:05:56;;;;;;;15.00;9.52;;;;;;;;;;5028342;28;20040;-78
2020/12/12 05:08:41;;;;;;;14.32;9.20;;;;;;;;;;5030320;28;20091;-78
2020/12/12 05:11:26;;;;;;;14.10;9.45;;;;;;;;;;5034689;28;20174;-80
2020/12/12 05:14:13;;;;;;;15.45;10.25;;;;;;;;;;5023508;28;20029;-80
2020/12/12 05:16:59;;;;;;;15.05;9.65;;;;;;;;;;5030129;28;20021;-78
2020/12/12 05:19:48;;;;;;;16.73;9.98;;;;;;;;;;5025428;28;20025;-78
2020/12/12 05:22:34;;;;;;;17.05;9.50;;;;;;;;;;5026862;28;20671;-78
2020/12/12 05:25:20;;;;;;;14.90;9.68;;;;;;;;;;5028872;28;20182;-79
2020/12/12 05:28:06;;;;;;;15.25;9.43;;;;;;;;;;5030657;28;20053;-79
2020/12/12 05:30:52;;;;;;;13.45;9.32;;;;;;;;;;5024101;28;20025;-78
2020/12/12 05:33:37;;;;;;;14.60;8.90;;;;;;;;;;5026355;28;20104;-79
2020/12/12 05:36:26;;;;;;;12.82;8.82;;;;;;;;;;5022605;28;20444;-78
2020/12/12 05:39:13;;;;;;;15.00;9.40;;;;;;;;;;5026563;28;20025;-79
2020/12/12 05:41:59;;;;;;;13.90;8.98;;;;;;;;;;5027052;28;20041;-79
2020/12/12 05:44:46;;;;;;;13.23;8.70;;;;;;;;;;5028319;28;20025;-79
2020/12/12 05:47:32;;;;;;;17.27;10.45;;;;;;;;;;5030543;28;20643;-78
2020/12/12 05:50:18;;;;;;;16.70;9.80;;;;;;;;;;5026378;28;20059;-79
2020/12/12 05:53:04;;;;;;;14.95;8.98;;;;;;;;;;5023307;28;20159;-79
2020/12/12 05:55:53;;;;;;;16.40;9.85;;;;;;;;;;5024867;28;20028;-78
2020/12/12 05:58:39;;;;;;;13.65;8.38;;;;;;;;;;5034047;28;20096;-79
2020/12/12 06:01:28;;;;;;;14.80;9.55;;;;;;;;;;5013125;28;20497;-79
2020/12/12 06:04:14;;;;;;;18.98;9.85;;;;;;;;;;5034926;28;20088;-79
2020/12/12 06:07:04;;;;;;;13.07;8.63;;;;;;;;;;5052214;28;20116;-79
2020/12/12 06:09:52;;;;;;;16.80;10.18;;;;;;;;;;5044484;28;20032;-78
2020/12/12 06:12:38;;;;;;;13.65;8.75;;;;;;;;;;5045375;28;20032;-79
2020/12/12 06:15:31;;;;;;;13.93;8.65;;;;;;;;;;5039773;28;20032;-79
2020/12/12 06:18:26;;;;;;;13.63;8.48;;;;;;;;;;5043497;28;20047;-79
2020/12/12 06:21:11;;;;;;;13.50;9.20;;;;;;;;;;5043300;28;20386;-79
2020/12/12 06:23:58;;;;;;;13.73;8.70;;;;;;;;;;5049116;28;20028;-79
2020/12/12 06:26:50;;;;;;;15.13;8.52;;;;;;;;;;5047846;28;20175;-78
2020/12/12 06:29:40;;;;;;;14.65;9.85;;;;;;;;;;5044063;28;20016;-79
2020/12/12 06:32:25;;;;;;;12.85;9.13;;;;;;;;;;5046945;28;20418;-78
2020/12/12 06:35:13;;;;;;;13.55;8.85;;;;;;;;;;5050673;28;20017;-78
2020/12/12 06:38:19;;;;;;;12.75;7.72;;;;;;;;;;5048202;28;20044;-78
2020/12/12 06:41:05;;;;;;;18.52;10.07;;;;;;;;;;5045143;28;20031;-78
2020/12/12 06:43:59;;;;;;;14.82;9.38;;;;;;;;;;5048766;28;20029;-78
2020/12/12 06:46:54;;;;;;;13.45;8.63;;;;;;;;;;5048527;28;20021;-79
2020/12/12 06:49:42;;;;;;;15.23;9.20;;;;;;;;;;5052205;28;20474;-78
2020/12/12 06:52:27;;;;;;;14.43;9.35;;;;;;;;;;5055852;28;20101;-79
2020/12/12 06:55:14;;;;;;;14.57;9.32;;;;;;;;;;5058602;28;20036;-79
2020/12/12 06:57:59;;;;;;;14.63;8.43;;;;;;;;;;5038581;28;20502;-79
2020/12/12 07:00:44;;;;;;;13.88;9.45;;;;;;;;;;5046295;28;20025;-79
2020/12/12 07:03:29;;;;;;;13.07;8.75;;;;;;;;;;5043028;28;20770;-79
2020/12/12 07:06:23;;;;;;;16.45;10.38;;;;;;;;;;5030191;28;20025;-79
2020/12/12 07:09:09;;;;;;;16.63;9.65;;;;;;;;;;5023822;28;20017;-79
2020/12/12 07:11:55;;;;;;;12.25;8.30;;;;;;;;;;5027303;28;20023;-78
2020/12/12 07:14:40;;;;;;;13.82;8.82;;;;;;;;;;5026858;28;20498;-80
2020/12/12 07:17:26;;;;;;;14.55;8.40;;;;;;;;;;5021199;28;20044;-79
2020/12/12 07:20:11;;;;;;;15.23;9.10;;;;;;;;;;5026589;28;20029;-79
2020/12/12 07:22:56;;;;;;;16.75;10.32;;;;;;;;;;5029467;28;20032;-79
2020/12/12 07:25:42;;;;;;;13.02;7.97;;;;;;;;;;5025332;28;20029;-80
2020/12/12 07:28:27;;;;;;;14.02;8.02;;;;;;;;;;5027663;28;20090;-79
2020/12/12 07:31:12;;;;;;;14.68;8.50;;;;;;;;;;5027408;28;20025;-79
2020/12/12 07:33:59;;;;;;;12.65;8.13;;;;;;;;;;5026433;28;20032;-79
2020/12/12 07:36:45;;;;;;;14.32;8.90;;;;;;;;;;5030269;28;20025;-80
2020/12/12 07:39:31;;;;;;;13.15;7.68;;;;;;;;;;5020213;28;20178;-78
2020/12/12 07:42:16;;;;;;;87.75;62.03;;;;;;;;;;5022453;28;20021;-79
2020/12/12 07:45:23;;;;;;;23.50;17.27;;;;;;;;;;5020019;28;20025;-80
2020/12/12 07:48:09;;;;;;;13.68;7.97;;;;;;;;;;5028087;28;20178;-78
2020/12/12 07:50:54;;;;;;;12.75;7.45;;;;;;;;;;5028738;28;20025;-80
2020/12/12 07:53:40;;;;;;;11.88;6.63;;;;;;;;;;5018842;28;20318;-78
2020/12/12 07:56:25;;;;;;;11.07;7.43;;;;;;;;;;5028616;28;20064;-80
2020/12/12 07:59:17;;;;;;;11.45;7.03;;;;;;;;;;5021915;28;20032;-78
2020/12/12 08:02:04;;;;;;;12.90;6.38;;;;;;;;;;5031265;28;20040;-79
2020/12/12 08:04:49;;;;;;;9.75;6.72;;;;;;;;;;5039738;28;20509;-77
2020/12/12 08:07:35;;;;;;;12.10;7.47;;;;;;;;;;5051490;28;20048;-78
2020/12/12 08:10:20;;;;;;;13.48;7.90;;;;;;;;;;5046882;28;20533;-79
2020/12/12 08:13:06;;;;;;;12.52;8.48;;;;;;;;;;5039466;28;20608;-79
2020/12/12 08:16:09;;;;;;;15.82;8.43;;;;;;;;;;5043515;28;20414;-79
2020/12/12 08:19:04;;;;;;;12.70;8.95;;;;;;;;;;5048770;28;20103;-79
2020/12/12 08:21:51;;;;;;;13.13;8.35;;;;;;;;;;5037925;28;20051;-79
2020/12/12 08:24:36;;;;;;;12.02;6.95;;;;;;;;;;5044207;28;20642;-79
2020/12/12 08:27:26;;;;;;;12.75;7.88;;;;;;;;;;5048424;28;20160;-80
2020/12/12 08:30:11;;;;;;;11.70;7.35;;;;;;;;;;5045589;28;20555;-79
2020/12/12 08:32:56;;;;;;;12.07;7.45;;;;;;;;;;5052019;28;20036;-79
2020/12/12 08:35:42;;;;;;;13.32;8.50;;;;;;;;;;5045427;28;20039;-80
2020/12/12 08:38:28;;;;;;;96.90;64.93;;;;;;;;;;5049553;28;20037;-79
2020/12/12 08:41:13;;;;;;;20.35;13.10;;;;;;;;;;5043603;28;20056;-80
2020/12/12 08:43:59;;;;;;;12.55;7.93;;;;;;;;;;5041263;28;20029;-81
2020/12/12 08:46:50;;;;;;;12.35;7.47;;;;;;;;;;5049162;28;20024;-81
2020/12/12 08:49:35;;;;;;;14.30;8.30;;;;;;;;;;5044363;28;20692;-79
2020/12/12 08:52:26;;;;;;;10.38;6.60;;;;;;;;;;5047001;28;20138;-81
2020/12/12 08:55:13;;;;;;;13.00;7.22;;;;;;;;;;5049332;28;20025;-79
2020/12/12 08:58:00;;;;;;;10.23;6.82;;;;;;;;;;5037649;28;20496;-79
2020/12/12 09:00:45;;;;;;;11.73;7.25;;;;;;;;;;5046717;28;20058;-78
2020/12/12 09:03:30;;;;;;;10.07;6.32;;;;;;;;;;5044308;28;20037;-80
2020/12/12 09:06:15;;;;;;;11.95;6.80;;;;;;;;;;5034237;28;20033;-78
2020/12/12 09:09:07;;;;;;;9.05;5.65;;;;;;;;;;5021360;28;20104;-81
2020/12/12 09:11:54;;;;;;;11.23;5.13;;;;;;;;;;5026863;28;20091;-80
2020/12/12 09:14:42;;;;;;;7.20;4.75;;;;;;;;;;5030393;28;20487;-81
2020/12/12 09:17:27;;;;;;;8.98;5.78;;;;;;;;;;5031282;28;20428;-80
2020/12/12 09:20:13;;;;;;;11.23;5.97;;;;;;;;;;5032953;28;20150;-79
2020/12/12 09:22:58;;;;;;;9.43;5.63;;;;;;;;;;5030838;28;20088;-79
2020/12/12 09:25:43;;;;;;;7.65;5.30;;;;;;;;;;5019337;28;20052;-79
2020/12/12 09:28:28;;;;;;;9.82;5.72;;;;;;;;;;5024162;28;20418;-81
2020/12/12 09:31:15;;;;;;;10.20;6.35;;;;;;;;;;5032095;28;20497;-80
2020/12/12 09:34:00;;;;;;;75.47;51.50;;;;;;;;;;5026928;28;20028;-80
2020/12/12 09:36:47;;;;;;;9.57;5.72;;;;;;;;;;5034957;28;20017;-78
2020/12/12 09:39:32;;;;;;;7.45;4.63;;;;;;;;;;5030921;28;20270;-78
2020/12/12 09:42:18;;;;;;;7.88;5.38;;;;;;;;;;5030797;28;20067;-81
2020/12/12 09:45:03;;;;;;;7.93;4.95;;;;;;;;;;5023267;28;20041;-80
2020/12/12 09:47:48;;;;;;;7.80;4.63;;;;;;;;;;5033214;28;20450;-79
2020/12/12 09:50:34;;;;;;;7.20;4.68;;;;;;;;;;5031124;28;20033;-81
2020/12/12 09:53:21;;;;;;;9.07;4.15;;;;;;;;;;5021995;28;20019;-79
2020/12/12 09:56:07;;;;;;;8.02;4.82;;;;;;;;;;5033580;28;20028;-79
2020/12/12 09:58:52;;;;;;;7.88;4.55;;;;;;;;;;5028676;28;20475;-79
2020/12/12 10:01:40;;;;;;;6.63;4.75;;;;;;;;;;5025265;28;20021;-80
2020/12/12 10:04:25;;;;;;;7.45;4.95;;;;;;;;;;5040560;28;20044;-79
2020/12/12 10:07:11;;;;;;;7.85;4.28;;;;;;;;;;5053392;28;20053;-80
2020/12/12 10:09:56;;;;;;;5.90;3.75;;;;;;;;;;5047995;28;20024;-79
2020/12/12 10:12:41;;;;;;;8.75;4.75;;;;;;;;;;5051006;28;20063;-79
2020/12/12 10:15:26;;;;;;;6.70;3.83;;;;;;;;;;5042408;28;20447;-79
2020/12/12 10:18:11;;;;;;;7.35;4.05;;;;;;;;;;5046044;28;20024;-80
2020/12/12 10:20:57;;;;;;;10.40;4.28;;;;;;;;;;5051320;28;20187;-80
2020/12/12 10:23:42;;;;;;;8.88;3.80;;;;;;;;;;5051428;28;20033;-80
2020/12/12 10:26:27;;;;;;;5.65;3.88;;;;;;;;;;5042506;28;20470;-79
2020/12/12 10:29:13;;;;;;;27.60;18.80;;;;;;;;;;5050811;28;20514;-79
2020/12/12 10:31:59;;;;;;;18.83;11.93;;;;;;;;;;5049073;28;20513;-79
2020/12/12 10:34:44;;;;;;;5.90;3.72;;;;;;;;;;5052924;28;20150;-79
2020/12/12 10:37:30;;;;;;;5.55;3.42;;;;;;;;;;5047966;28;20467;-79
2020/12/12 10:40:26;;;;;;;4.90;3.40;;;;;;;;;;5060326;28;20032;-81
2020/12/12 10:43:11;;;;;;;4.53;2.78;;;;;;;;;;5047661;28;20021;-80
2020/12/12 10:45:57;;;;;;;4.43;2.85;;;;;;;;;;5043030;28;20036;-80
2020/12/12 10:48:42;;;;;;;5.00;3.05;;;;;;;;;;5052714;28;20028;-80
2020/12/12 10:51:27;;;;;;;3.97;2.80;;;;;;;;;;5042833;28;20029;-80
2020/12/12 10:54:12;;;;;;;6.22;2.97;;;;;;;;;;5049494;28;20502;-80
2020/12/12 10:56:58;;;;;;;3.72;2.88;;;;;;;;;;5045939;28;20115;-81
2020/12/12 10:59:44;;;;;;;3.75;2.50;;;;;;;;;;5046861;28;20085;-79
2020/12/12 11:02:30;;;;;;;5.32;2.70;;;;;;;;;;5034910;28;20016;-79
2020/12/12 11:05:15;;;;;;;4.68;2.80;;;;;;;;;;5044471;28;20102;-81
2020/12/12 11:08:00;;;;;;;6.05;2.97;;;;;;;;;;5041702;28;20028;-79
2020/12/12 11:10:45;;;;;;;5.10;2.67;;;;;;;;;;5049815;28;20089;-81
2020/12/12 11:13:30;;;;;;;3.70;2.25;;;;;;;;;;5042867;28;20047;-80
2020/12/12 11:16:20;;;;;;;3.35;2.70;;;;;;;;;;5043745;28;20031;-79
2020/12/12 11:19:05;;;;;;;3.00;2.43;;;;;;;;;;5046772;28;20017;-80
2020/12/12 11:21:54;;;;;;;4.45;2.67;;;;;;;;;;5041460;28;20338;-79
2020/12/12 11:24:39;;;;;;;10.13;5.72;;;;;;;;;;5050304;28;20055;-79
2020/12/12 11:27:24;;;;;;;4.05;2.80;;;;;;;;;;5052017;28;20028;-79
2020/12/12 11:30:11;;;;;;;5.20;2.30;;;;;;;;;;5043370;28;20052;-80
2020/12/12 11:32:57;;;;;;;6.75;2.50;;;;;;;;;;5042824;28;20316;-79
2020/12/12 11:36:13;;;;;;;4.72;2.70;;;;;;;;;;5048578;28;20033;-80
2020/12/12 11:38:59;;;;;;;4.50;2.72;;;;;;;;;;5046166;28;20021;-81
2020/12/12 11:42:14;;;;;;;4.05;2.75;;;;;;;;;;5048916;28;20108;-81
2020/12/12 11:47:56;;;;;;;6.95;3.13;;;;;;;;;;5046750;28;20017;-80
2020/12/12 11:50:42;;;;;;;6.03;3.00;;;;;;;;;;5041074;28;20025;-79
2020/12/12 11:53:27;;;;;;;4.63;2.58;;;;;;;;;;5039093;28;20029;-81
2020/12/12 11:56:16;;;;;;;8.88;3.22;;;;;;;;;;5035978;28;20104;-81
2020/12/12 11:59:01;;;;;;;5.97;2.50;;;;;;;;;;5043652;28;20032;-82
2020/12/12 12:01:46;;;;;;;6.15;3.28;;;;;;;;;;5048809;28;20039;-81
2020/12/12 12:04:32;;;;;;;6.35;2.80;;;;;;;;;;5041804;28;20549;-81
2020/12/12 12:07:17;;;;;;;6.03;2.90;;;;;;;;;;5067703;28;20036;-80
2020/12/12 12:13:14;;;;;;;5.38;2.97;;;;;;;;;;5032476;28;20116;-79
2020/12/12 12:15:59;;;;;;;5.15;2.78;;;;;;;;;;5031534;28;20012;-77
2020/12/12 12:18:45;;;;;;;5.68;2.75;;;;;;;;;;5036097;28;20027;-81
2020/12/12 12:21:30;;;;;;;7.22;3.22;;;;;;;;;;5039747;28;20020;-81
2020/12/12 12:24:17;;;;;;;45.10;30.48;;;;;;;;;;5039043;28;20083;-82
2020/12/12 12:27:04;;;;;;;7.75;4.30;;;;;;;;;;5037150;28;20032;-81
2020/12/12 12:29:50;;;;;;;6.85;3.83;;;;;;;;;;5040339;28;20120;-81
2020/12/12 12:32:35;;;;;;;4.95;3.10;;;;;;;;;;5039959;28;20467;-81
2020/12/12 12:35:20;;;;;;;8.82;3.58;;;;;;;;;;5039328;28;20033;-81
2020/12/12 12:38:05;;;;;;;5.00;3.20;;;;;;;;;;5044936;28;20052;-81
2020/12/12 12:40:51;;;;;;;7.10;3.33;;;;;;;;;;5044049;28;20468;-82
2020/12/12 12:43:36;;;;;;;6.38;3.33;;;;;;;;;;5045318;28;20040;-77
2020/12/12 12:46:21;;;;;;;5.63;3.17;;;;;;;;;;5045869;28;20036;-78
2020/12/12 12:49:07;;;;;;;4.82;3.08;;;;;;;;;;5048603;28;20017;-77
2020/12/12 12:51:52;;;;;;;5.30;3.28;;;;;;;;;;5049718;28;20028;-77
2020/12/12 12:54:37;;;;;;;6.43;3.63;;;;;;;;;;5050327;28;20104;-78
2020/12/12 12:57:22;;;;;;;4.93;3.08;;;;;;;;;;5063440;28;20360;-79
2020/12/12 13:00:07;;;;;;;4.10;2.78;;;;;;;;;;5047753;28;20032;-78
2020/12/12 13:02:53;;;;;;;5.70;3.45;;;;;;;;;;5045103;28;20028;-79
2020/12/12 13:05:39;;;;;;;7.97;3.38;;;;;;;;;;5048920;28;20048;-79
2020/12/12 13:08:24;;;;;;;5.00;3.38;;;;;;;;;;5053465;28;20027;-77
2020/12/12 13:11:10;;;;;;;6.35;3.47;;;;;;;;;;5048022;28;20024;-78
2020/12/12 13:13:55;;;;;;;6.85;3.22;;;;;;;;;;5049608;28;20036;-78
2020/12/12 13:16:40;;;;;;;6.32;4.10;;;;;;;;;;5040376;28;20055;-78
2020/12/12 13:19:38;;;;;;;5.07;2.97;;;;;;;;;;5061488;28;20065;-78
2020/12/12 13:22:23;;;;;;;6.82;3.70;;;;;;;;;;5049094;28;20051;-77
2020/12/12 13:25:08;;;;;;;4.80;3.00;;;;;;;;;;5042587;28;20060;-78
2020/12/12 13:31:07;;;;;;;5.13;3.35;;;;;;;;;;5053831;28;20482;-77
2020/12/12 13:33:52;;;;;;;6.40;3.65;;;;;;;;;;5043789;28;20079;-78
2020/12/12 13:36:37;;;;;;;5.97;3.85;;;;;;;;;;5049627;28;20128;-77
2020/12/12 13:39:23;;;;;;;5.78;3.60;;;;;;;;;;5047811;28;20439;-78
2020/12/12 13:42:08;;;;;;;6.25;3.10;;;;;;;;;;5048324;28;20104;-80
2020/12/12 13:44:53;;;;;;;7.15;3.08;;;;;;;;;;5043058;28;20029;-81
2020/12/12 13:47:38;;;;;;;4.68;3.30;;;;;;;;;;5044966;28;20119;-80
2020/12/12 13:50:24;;;;;;;6.15;3.63;;;;;;;;;;5049774;28;20097;-80
2020/12/12 13:53:09;;;;;;;10.57;6.53;;;;;;;;;;5046341;28;20062;-80
2020/12/12 13:55:54;;;;;;;15.63;10.13;;;;;;;;;;5052233;28;20024;-78
2020/12/12 13:58:39;;;;;;;10.43;6.10;;;;;;;;;;5046242;28;20037;-79
2020/12/12 14:01:25;;;;;;;6.75;4.28;;;;;;;;;;5047070;28;20032;-77
2020/12/12 14:04:10;;;;;;;5.82;3.58;;;;;;;;;;5047933;28;20132;-78
2020/12/12 14:06:59;;;;;;;6.88;3.30;;;;;;;;;;5045352;28;20136;-81
2020/12/12 14:25:15;;;;;;;15.15;10.05;;;;;;;;;;5046797;28;20036;-81
2020/12/12 14:31:04;;;;;;;5.43;3.17;;;;;;;;;;5043043;28;20032;-81
2020/12/12 14:33:50;;;;;;;8.38;3.75;;;;;;;;;;5047204;28;20024;-81
2020/12/12 14:36:35;;;;;;;4.40;2.78;;;;;;;;;;5048859;28;20021;-83
2020/12/12 14:39:20;;;;;;;6.53;3.58;;;;;;;;;;5048267;28;20027;-81
2020/12/12 14:42:05;;;;;;;7.20;3.22;;;;;;;;;;5049144;28;20442;-83
2020/12/12 14:44:50;;;;;;;5.15;3.13;;;;;;;;;;5041739;28;20025;-84
2020/12/12 14:47:36;;;;;;;8.02;3.55;;;;;;;;;;5049305;28;20024;-84
2020/12/12 14:50:21;;;;;;;5.30;3.38;;;;;;;;;;5045258;28;20032;-83
2020/12/12 14:53:06;;;;;;;5.40;3.08;;;;;;;;;;5047854;28;20542;-79
2020/12/12 14:55:51;;;;;;;7.97;5.07;;;;;;;;;;5042327;28;20036;-78
2020/12/12 14:58:36;;;;;;;13.00;7.80;;;;;;;;;;5046518;28;20025;-78
2020/12/12 15:01:22;;;;;;;8.90;5.57;;;;;;;;;;5041449;28;20039;-77
2020/12/12 15:04:07;;;;;;;8.20;4.78;;;;;;;;;;5048040;28;20037;-79
2020/12/12 15:06:52;;;;;;;9.68;5.10;;;;;;;;;;5046355;28;20020;-79
2020/12/12 15:09:37;;;;;;;10.48;4.68;;;;;;;;;;5043854;28;20690;-77
2020/12/12 15:12:26;;;;;;;7.50;4.95;;;;;;;;;;5045652;28;20044;-79
2020/12/12 15:15:11;;;;;;;36.42;26.42;;;;;;;;;;5050968;28;20072;-79
2020/12/12 15:17:56;;;;;;;7.60;5.00;;;;;;;;;;5045808;28;20028;-79
2020/12/12 15:20:42;;;;;;;7.30;3.53;;;;;;;;;;5048136;28;20111;-79
2020/12/12 15:23:27;;;;;;;4.53;2.95;;;;;;;;;;5048584;28;20025;-79
2020/12/12 15:26:13;;;;;;;6.15;3.33;;;;;;;;;;5061810;28;20565;-78
2020/12/12 15:29:02;;;;;;;8.23;3.90;;;;;;;;;;5047687;28;20074;-76
2020/12/12 15:31:48;;;;;;;14.00;7.68;;;;;;;;;;5051829;28;20032;-77
2020/12/12 15:34:33;;;;;;;11.75;6.43;;;;;;;;;;5044927;28;20502;-77
2020/12/12 15:37:19;;;;;;;5.15;3.60;;;;;;;;;;5047734;28;20032;-80
2020/12/12 15:40:04;;;;;;;7.80;3.97;;;;;;;;;;5045606;28;20342;-79
2020/12/12 15:42:49;;;;;;;7.70;3.50;;;;;;;;;;5047148;28;20017;-78
2020/12/12 15:45:34;;;;;;;5.88;3.42;;;;;;;;;;5058121;28;20067;-78
2020/12/12 15:48:21;;;;;;;7.32;3.80;;;;;;;;;;5043390;28;20020;-78
2020/12/12 15:51:06;;;;;;;6.30;3.97;;;;;;;;;;5041302;28;20032;-76
2020/12/12 15:53:51;;;;;;;7.10;3.45;;;;;;;;;;5043016;28;20032;-78
2020/12/12 15:56:40;;;;;;;7.38;3.60;;;;;;;;;;5051379;28;20024;-78
2020/12/12 15:59:26;;;;;;;7.25;3.90;;;;;;;;;;5041383;28;20415;-77
2020/12/12 16:02:11;;;;;;;6.15;3.70;;;;;;;;;;5051367;28;20029;-77
2020/12/12 16:04:56;;;;;;;6.45;4.28;;;;;;;;;;5040967;28;20095;-77
2020/12/12 16:07:44;;;;;;;9.70;4.05;;;;;;;;;;5043160;28;20025;-77
2020/12/12 16:10:30;;;;;;;7.43;3.78;;;;;;;;;;5049049;28;20035;-79
2020/12/12 16:13:15;;;;;;;8.20;4.15;;;;;;;;;;5041609;28;20188;-77
2020/12/12 16:16:04;;;;;;;8.02;4.43;;;;;;;;;;5048981;28;20017;-79
2020/12/12 16:18:49;;;;;;;10.32;4.82;;;;;;;;;;5040212;28;20032;-78
2020/12/12 16:21:35;;;;;;;9.05;4.45;;;;;;;;;;5046075;28;20044;-79
2020/12/12 16:24:21;;;;;;;7.95;4.40;;;;;;;;;;5044939;28;20029;-79
2020/12/12 16:27:06;;;;;;;7.55;4.32;;;;;;;;;;5039540;28;20045;-76
2020/12/12 16:29:51;;;;;;;8.18;4.28;;;;;;;;;;5044733;28;20012;-78
2020/12/12 16:32:37;;;;;;;11.77;4.50;;;;;;;;;;5045129;28;20020;-78
2020/12/12 16:35:22;;;;;;;9.77;4.60;;;;;;;;;;5043086;28;20025;-78
2020/12/12 16:38:08;;;;;;;9.77;4.00;;;;;;;;;;5046919;28;20028;-78
2020/12/12 16:40:53;;;;;;;7.60;4.75;;;;;;;;;;5050596;28;20041;-78
2020/12/12 16:43:39;;;;;;;10.20;5.20;;;;;;;;;;5065101;28;20390;-78
2020/12/12 16:46:25;;;;;;;8.70;4.43;;;;;;;;;;5047804;28;20066;-78
2020/12/12 16:49:10;;;;;;;7.57;4.50;;;;;;;;;;5052317;28;20023;-78
2020/12/12 16:51:55;;;;;;;9.52;4.53;;;;;;;;;;5052731;28;20028;-78
2020/12/12 16:54:41;;;;;;;8.20;5.07;;;;;;;;;;5050830;28;20017;-78